Time;durP1;ratioP1;P1;durP2;ratioP2;P2;SDS_P1;SDS_P2;PMS_P1;PMS_P2;Temp;Humidity;BMP_temperature;BMP_pressure;BME280_temperature;BME280_humidity;BME280_pressure;Samples;Min_cycle;Max_cycle;Signal;HPM_P1;HPM_P2
2021/11/02 00:00:36;;;;;;;0.15;0.10;;;19.20;53.50;;;;;;5074813;28;20501;-46
2021/11/02 00:03:03;;;;;;;0.10;0.03;;;19.20;53.50;;;;;;5078804;28;20119;-46
2021/11/02 00:05:30;;;;;;;0.63;0.10;;;19.20;53.50;;;;;;5080167;28;20041;-46
2021/11/02 00:07:57;;;;;;;0.73;0.00;;;19.20;53.50;;;;;;5077325;28;20633;-46
2021/11/02 00:10:24;;;;;;;1.55;0.55;;;19.20;53.40;;;;;;5076499;28;20404;-46
2021/11/02 00:12:52;;;;;;;3.20;0.10;;;19.20;53.40;;;;;;5077557;28;20032;-46
2021/11/02 00:15:23;;;;;;;0.43;0.10;;;19.20;53.40;;;;;;5083269;28;20042;-46
2021/11/02 00:17:55;;;;;;;1.30;0.20;;;19.20;53.40;;;;;;5074543;28;20049;-46
2021/11/02 00:20:23;;;;;;;2.55;0.10;;;19.20;53.40;;;;;;5079695;28;20048;-46
2021/11/02 00:22:55;;;;;;;3.25;0.10;;;19.20;53.40;;;;;;5079442;28;20044;-46
2021/11/02 00:25:22;;;;;;;1.58;0.10;;;19.20;53.40;;;;;;5074263;28;20044;-46
2021/11/02 00:27:49;;;;;;;0.70;0.10;;;19.20;53.40;;;;;;5075787;28;20524;-46
2021/11/02 00:30:17;;;;;;;1.00;0.10;;;19.20;53.40;;;;;;5080217;28;20109;-46
2021/11/02 00:32:47;;;;;;;0.10;0.10;;;19.20;53.40;;;;;;5077999;28;20040;-46
2021/11/02 00:35:17;;;;;;;0.22;0.22;;;19.20;53.40;;;;;;5082757;28;20047;-46
2021/11/02 00:37:44;;;;;;;0.52;0.10;;;19.20;53.40;;;;;;5080850;28;20044;-46
2021/11/02 00:40:13;;;;;;;0.20;0.10;;;19.10;53.30;;;;;;5071559;28;20052;-46
2021/11/02 00:42:49;;;;;;;0.10;0.10;;;19.20;53.40;;;;;;5073023;28;20043;-46
2021/11/02 00:45:23;;;;;;;0.75;0.10;;;19.20;53.40;;;;;;5076019;28;20090;-46
2021/11/02 00:47:52;;;;;;;1.10;0.10;;;19.10;53.30;;;;;;5077761;28;20552;-46
2021/11/02 00:50:20;;;;;;;0.73;0.10;;;19.10;53.30;;;;;;5076150;28;20064;-46
2021/11/02 00:52:47;;;;;;;0.50;0.10;;;19.10;53.40;;;;;;5076206;28;20052;-46
2021/11/02 00:55:14;;;;;;;2.60;0.80;;;19.10;53.30;;;;;;5074639;28;20040;-46
2021/11/02 00:57:41;;;;;;;0.10;0.10;;;19.10;53.90;;;;;;5076688;28;20036;-46
2021/11/02 01:00:12;;;;;;;0.70;0.00;;;19.10;53.40;;;;;;5072445;28;20048;-46
2021/11/02 01:02:39;;;;;;;0.15;0.10;;;19.10;53.30;;;;;;5076318;28;20053;-46
2021/11/02 01:05:07;;;;;;;0.10;0.10;;;19.10;53.40;;;;;;5079362;28;20043;-46
2021/11/02 01:07:35;;;;;;;1.67;0.17;;;19.10;53.40;;;;;;5080149;28;20040;-46
2021/11/02 01:10:04;;;;;;;0.50;0.50;;;19.10;53.40;;;;;;5074706;28;20147;-46
2021/11/02 01:12:32;;;;;;;0.10;0.00;;;19.10;53.40;;;;;;5072496;28;20040;-46
2021/11/02 01:14:59;;;;;;;2.47;0.10;;;19.10;53.40;;;;;;5076719;28;20036;-46
2021/11/02 01:17:26;;;;;;;0.38;0.00;;;19.10;53.40;;;;;;5079775;28;20043;-46
2021/11/02 01:19:54;;;;;;;0.20;0.10;;;19.10;53.40;;;;;;5079606;28;20048;-45
2021/11/02 01:22:21;;;;;;;0.15;0.00;;;19.10;53.40;;;;;;5069550;28;20088;-45
2021/11/02 01:24:50;;;;;;;0.88;0.10;;;19.10;53.30;;;;;;5072902;28;20036;-46
2021/11/02 01:27:19;;;;;;;1.05;0.08;;;19.10;53.30;;;;;;5076665;28;20177;-46
2021/11/02 01:29:46;;;;;;;1.35;0.10;;;19.10;53.40;;;;;;5078780;28;20103;-46
2021/11/02 01:32:13;;;;;;;0.20;0.10;;;19.10;53.40;;;;;;5078360;28;20044;-45
2021/11/02 01:34:46;;;;;;;0.40;0.10;;;19.10;53.40;;;;;;5078439;28;20047;-45
2021/11/02 01:37:13;;;;;;;0.73;0.10;;;19.10;53.30;;;;;;5071748;28;20043;-46
2021/11/02 01:39:41;;;;;;;0.20;0.10;;;19.10;53.40;;;;;;5075963;28;20052;-46
2021/11/02 01:42:11;;;;;;;0.35;0.00;;;19.10;53.60;;;;;;5073871;28;20041;-46
2021/11/02 01:44:38;;;;;;;0.52;0.15;;;19.10;53.40;;;;;;5077582;28;20536;-46
2021/11/02 01:47:06;;;;;;;0.38;0.00;;;19.10;53.40;;;;;;5080640;28;20048;-46
2021/11/02 01:49:36;;;;;;;1.75;0.10;;;19.10;53.40;;;;;;5078084;28;20044;-46
2021/11/02 01:52:05;;;;;;;0.82;0.10;;;19.00;53.30;;;;;;5076837;28;20040;-45
2021/11/02 01:54:32;;;;;;;0.10;0.10;;;19.00;53.30;;;;;;5076395;28;20689;-46
2021/11/02 01:57:00;;;;;;;0.20;0.03;;;19.00;53.30;;;;;;5076656;28;20123;-46
2021/11/02 01:59:31;;;;;;;0.15;0.00;;;19.00;53.30;;;;;;5077748;28;20048;-46
2021/11/02 02:02:29;;;;;;;0.77;0.00;;;19.00;53.30;;;;;;5077691;28;20052;-46
2021/11/02 02:05:05;;;;;;;0.60;0.10;;;19.00;53.30;;;;;;5078003;28;20524;-45
2021/11/02 02:07:47;;;;;;;2.25;0.25;;;19.00;53.40;;;;;;5080410;28;20040;-46
2021/11/02 02:10:24;;;;;;;1.65;0.10;;;19.00;53.40;;;;;;5079462;28;20115;-46
2021/11/02 02:13:04;;;;;;;0.17;0.10;;;19.00;53.40;;;;;;5062891;28;20106;-46
2021/11/02 02:15:41;;;;;;;1.05;0.20;;;19.00;53.40;;;;;;5065319;28;20504;-46
2021/11/02 02:18:13;;;;;;;0.30;0.10;;;19.00;53.40;;;;;;5083631;28;20044;-46
2021/11/02 02:20:58;;;;;;;0.88;0.10;;;19.00;53.40;;;;;;5074754;28;20068;-46
2021/11/02 02:23:39;;;;;;;0.32;0.10;;;19.00;53.40;;;;;;5082866;28;20130;-46
2021/11/02 02:26:13;;;;;;;0.03;0.03;;;19.00;53.40;;;;;;5084837;28;20044;-46
2021/11/02 02:28:45;;;;;;;0.52;0.10;;;19.00;53.40;;;;;;5079112;28;20119;-45
2021/11/02 02:31:19;;;;;;;0.10;0.00;;;19.00;53.40;;;;;;5080597;28;20040;-46
2021/11/02 02:33:48;;;;;;;1.17;0.08;;;19.00;53.40;;;;;;5080287;28;20093;-47
2021/11/02 02:36:39;;;;;;;0.08;0.00;;;19.00;53.40;;;;;;5076974;28;20599;-46
2021/11/02 02:39:11;;;;;;;0.75;0.10;;;19.00;53.40;;;;;;5076933;28;20049;-46
2021/11/02 02:41:42;;;;;;;0.80;0.10;;;19.00;53.40;;;;;;5079965;28;20048;-46
2021/11/02 02:44:14;;;;;;;2.10;0.10;;;19.00;54.00;;;;;;5086590;28;20040;-46
2021/11/02 02:46:41;;;;;;;0.40;0.00;;;19.00;53.40;;;;;;5090133;28;20044;-46
2021/11/02 02:49:12;;;;;;;0.70;0.00;;;19.00;53.40;;;;;;5079642;28;20071;-46
2021/11/02 02:51:42;;;;;;;0.10;0.00;;;19.00;53.30;;;;;;5076263;28;20121;-46
2021/11/02 02:54:11;;;;;;;0.20;0.00;;;19.00;53.40;;;;;;5080416;28;20123;-46
2021/11/02 02:56:43;;;;;;;0.43;0.10;;;19.00;53.30;;;;;;5074467;28;20048;-46
2021/11/02 02:59:13;;;;;;;0.03;0.00;;;19.00;53.30;;;;;;5087881;28;20036;-46
2021/11/02 03:01:41;;;;;;;2.10;0.65;;;19.00;53.40;;;;;;5077220;28;20128;-45
2021/11/02 03:04:13;;;;;;;0.65;0.10;;;19.00;53.30;;;;;;5082425;28;20583;-46
2021/11/02 03:06:52;;;;;;;0.15;0.10;;;19.00;53.30;;;;;;5079772;28;20116;-46
2021/11/02 03:09:20;;;;;;;0.10;0.00;;;19.00;53.30;;;;;;5074399;28;20052;-46
2021/11/02 03:11:48;;;;;;;1.90;0.10;;;19.00;53.30;;;;;;5062492;28;20456;-46
2021/11/02 03:14:28;;;;;;;0.60;0.10;;;19.00;53.30;;;;;;5082887;28;20043;-46
2021/11/02 03:17:03;;;;;;;0.15;0.00;;;19.00;53.30;;;;;;5083640;28;20531;-46
2021/11/02 03:48:13;;;;;;;1.02;0.10;;;18.90;53.20;;;;;;5020848;28;19933;-46
2021/11/02 03:51:02;;;;;;;0.50;0.03;;;18.90;53.40;;;;;;5021324;28;20046;-46
2021/11/02 03:56:27;;;;;;;0.00;0.00;;;18.90;53.40;;;;;;5037149;28;20218;-45
2021/11/02 03:59:22;;;;;;;0.40;0.03;;;18.90;53.40;;;;;;5005422;28;20399;-46
2021/11/02 04:02:09;;;;;;;0.40;0.10;;;18.90;53.40;;;;;;5016414;28;20048;-46
2021/11/02 04:24:38;;;;;;;0.10;0.00;;;18.90;53.40;;;;;;4891494;29;20075;-46
2021/11/02 04:27:17;;;;;;;0.45;0.03;;;18.90;53.40;;;;;;4910392;29;20051;-45
2021/11/02 05:06:35;;;;;;;0.00;0.00;;;18.90;53.30;;;;;;4899399;29;20044;-46
2021/11/02 05:07:16;;;;;;;0.90;0.10;;;18.90;53.30;;;;;;4894941;29;20060;-46
2021/11/02 05:49:21;;;;;;;0.65;0.00;;;18.90;53.20;;;;;;5013682;28;20127;-46
2021/11/02 05:57:48;;;;;;;0.85;0.20;;;18.90;53.20;;;;;;5014770;28;20088;-46
2021/11/02 06:00:24;;;;;;;0.00;0.00;;;18.90;53.20;;;;;;5025747;28;20052;-46
2021/11/02 06:08:36;;;;;;;0.10;0.00;;;18.90;53.20;;;;;;5074934;28;20131;-46
2021/11/02 06:28:11;;;;;;;0.03;0.00;;;18.90;53.10;;;;;;4989167;28;20085;-46
2021/11/02 06:30:46;;;;;;;0.00;0.00;;;18.90;53.10;;;;;;4990863;28;20042;-46
2021/11/02 06:33:28;;;;;;;0.47;0.10;;;18.90;53.00;;;;;;4994833;28;20112;-46
2021/11/02 06:36:07;;;;;;;0.57;0.55;;;18.90;53.00;;;;;;4969201;28;20046;-46
2021/11/02 07:17:57;;;;;;;0.13;0.00;;;18.90;53.40;;;;;;5041320;28;20057;-46
2021/11/02 07:20:35;;;;;;;0.08;0.05;;;18.90;52.80;;;;;;5039212;28;20053;-46
2021/11/02 07:23:14;;;;;;;1.20;0.00;;;18.90;52.80;;;;;;5039891;28;20135;-46
2021/11/02 07:25:50;;;;;;;0.28;0.10;;;18.90;52.80;;;;;;5032994;28;20453;-46
2021/11/02 08:47:00;;;;;;;0.65;0.00;;;18.90;52.30;;;;;;4969145;28;20090;-46
2021/11/02 08:49:29;;;;;;;0.10;0.10;;;18.90;52.30;;;;;;4974299;28;20070;-46
2021/11/02 08:51:58;;;;;;;0.30;0.10;;;19.00;52.30;;;;;;4974512;28;20046;-46
2021/11/02 08:54:25;;;;;;;0.47;0.10;;;19.00;52.20;;;;;;4964679;28;20051;-45
2021/11/02 08:56:55;;;;;;;0.10;0.10;;;19.00;52.20;;;;;;4964992;28;20590;-46
2021/11/02 08:59:22;;;;;;;0.93;0.00;;;19.00;52.20;;;;;;5033453;28;20049;-46
2021/11/02 09:01:56;;;;;;;0.90;0.05;;;19.00;52.10;;;;;;5038111;28;20056;-47
2021/11/02 09:04:32;;;;;;;5.32;0.10;;;19.00;52.10;;;;;;5033527;28;20056;-50
2021/11/02 09:07:03;;;;;;;1.00;0.10;;;19.00;52.00;;;;;;5002020;28;20536;-46
2021/11/02 09:09:40;;;;;;;1.05;0.00;;;19.10;52.00;;;;;;5036236;28;20056;-46
2021/11/02 09:12:08;;;;;;;0.10;0.00;;;19.10;51.90;;;;;;5039026;28;20051;-46
2021/11/02 09:14:38;;;;;;;1.00;0.68;;;19.00;51.80;;;;;;5073091;28;20051;-46
2021/11/02 09:17:06;;;;;;;1.45;0.00;;;19.10;51.90;;;;;;5084561;28;20416;-46
2021/11/02 09:19:36;;;;;;;0.15;0.15;;;19.10;51.80;;;;;;5072493;28;20044;-46
2021/11/02 09:22:04;;;;;;;0.22;0.03;;;19.10;51.80;;;;;;5076912;28;20153;-46
2021/11/02 09:24:34;;;;;;;0.20;0.03;;;19.10;51.70;;;;;;5069616;28;20067;-46
2021/11/02 09:27:03;;;;;;;0.08;0.08;;;19.10;51.70;;;;;;5090479;28;20106;-46
2021/11/02 09:29:30;;;;;;;0.50;0.10;;;19.10;51.70;;;;;;5075342;28;20048;-46
2021/11/02 09:31:58;;;;;;;0.38;0.00;;;19.10;51.60;;;;;;5082613;28;20048;-46
2021/11/02 09:34:27;;;;;;;0.10;0.00;;;19.10;51.60;;;;;;5074143;28;20058;-46
2021/11/02 09:37:03;;;;;;;1.65;0.00;;;19.20;51.60;;;;;;5076351;28;20067;-46
2021/11/02 09:39:38;;;;;;;0.10;0.00;;;19.20;51.50;;;;;;5062557;28;20037;-46
2021/11/02 09:42:38;;;;;;;0.00;0.00;;;19.20;51.50;;;;;;5077197;28;20036;-46
2021/11/02 09:45:31;;;;;;;2.65;0.00;;;19.20;51.40;;;;;;5079790;28;20070;-46
2021/11/02 09:48:56;;;;;;;1.70;0.00;;;19.20;51.40;;;;;;5067630;28;20519;-46
2021/11/02 09:52:04;;;;;;;0.82;0.10;;;19.20;51.30;;;;;;5027105;28;20048;-46
2021/11/02 09:55:07;;;;;;;2.28;0.10;;;19.20;51.30;;;;;;4997697;28;20041;-46
2021/11/02 09:57:57;;;;;;;0.00;0.00;;;19.20;51.30;;;;;;5016350;28;20045;-46
2021/11/02 10:00:44;;;;;;;0.57;0.10;;;19.20;51.20;;;;;;5026919;28;20547;-46
2021/11/02 10:03:47;;;;;;;0.13;0.00;;;19.20;51.20;;;;;;5031901;28;20053;-46
2021/11/02 10:06:37;;;;;;;0.10;0.10;;;19.30;51.10;;;;;;5033300;28;20081;-46
2021/11/02 10:09:08;;;;;;;0.00;0.00;;;19.30;51.10;;;;;;5019776;28;20042;-46
2021/11/02 10:11:40;;;;;;;2.08;0.08;;;19.20;51.10;;;;;;5029513;28;20056;-46
2021/11/02 10:14:30;;;;;;;2.38;0.10;;;19.30;51.10;;;;;;5035214;28;20479;-46
2021/11/02 10:17:15;;;;;;;0.10;0.10;;;19.30;51.00;;;;;;5021469;28;20552;-46
2021/11/02 10:20:08;;;;;;;0.10;0.05;;;19.30;51.00;;;;;;5034340;28;20049;-46
2021/11/02 10:23:03;;;;;;;0.15;0.10;;;19.30;50.90;;;;;;5031527;28;20057;-46
2021/11/02 10:26:03;;;;;;;1.25;0.10;;;19.30;50.90;;;;;;5061659;28;20056;-46
2021/11/02 10:29:12;;;;;;;0.10;0.00;;;19.30;50.90;;;;;;5076771;28;20055;-46
2021/11/02 10:31:48;;;;;;;0.00;0.00;;;19.30;50.80;;;;;;5079929;28;20066;-47
2021/11/02 10:34:46;;;;;;;1.48;0.10;;;19.30;50.90;;;;;;5075549;28;20047;-46
2021/11/02 10:37:23;;;;;;;0.25;0.00;;;19.30;50.80;;;;;;5079481;28;20036;-46
2021/11/02 10:40:07;;;;;;;1.65;0.47;;;19.40;50.80;;;;;;5077333;28;20053;-46
2021/11/02 10:42:52;;;;;;;0.00;0.00;;;19.40;50.70;;;;;;5076009;28;20074;-46
2021/11/02 10:45:26;;;;;;;0.00;0.00;;;19.40;50.60;;;;;;5065333;28;20043;-46
2021/11/02 10:48:01;;;;;;;1.98;0.05;;;19.40;50.60;;;;;;5076246;28;20056;-46
2021/11/02 10:50:36;;;;;;;0.70;0.00;;;19.50;50.60;;;;;;5081081;28;20044;-46
2021/11/02 10:53:05;;;;;;;0.00;0.00;;;19.50;50.50;;;;;;5083882;28;20051;-46
2021/11/02 10:55:59;;;;;;;0.85;0.85;;;19.50;50.50;;;;;;5077729;28;20048;-46
2021/11/02 10:58:35;;;;;;;0.10;0.00;;;19.60;50.40;;;;;;5074042;28;20116;-47
2021/11/02 11:01:05;;;;;;;0.03;0.03;;;19.70;50.50;;;;;;5073627;28;20048;-46
2021/11/02 11:03:34;;;;;;;0.00;0.00;;;19.70;50.30;;;;;;5076301;28;20496;-46
2021/11/02 11:06:04;;;;;;;0.15;0.05;;;19.80;50.10;;;;;;5079375;28;20041;-46
2021/11/02 11:08:34;;;;;;;2.67;0.10;;;19.80;49.90;;;;;;5079877;28;25658;-46
2021/11/02 11:11:03;;;;;;;0.10;0.00;;;19.80;49.70;;;;;;5085126;28;20075;-46
2021/11/02 11:13:31;;;;;;;0.30;0.05;;;19.80;49.60;;;;;;5076915;28;20044;-46
2021/11/02 11:16:02;;;;;;;0.10;0.00;;;19.90;49.60;;;;;;5075602;28;20053;-46
2021/11/02 11:18:39;;;;;;;0.32;0.00;;;19.90;49.40;;;;;;5078603;28;20507;-46
2021/11/02 11:21:09;;;;;;;0.00;0.00;;;19.90;49.70;;;;;;5079375;28;20032;-46
2021/11/02 11:23:38;;;;;;;2.30;0.20;;;20.00;49.70;;;;;;5074116;28;20426;-46
2021/11/02 11:26:07;;;;;;;0.20;0.10;;;20.00;49.80;;;;;;5080020;28;20594;-46
2021/11/02 11:28:37;;;;;;;0.08;0.00;;;20.10;49.70;;;;;;5076295;28;20044;-46
2021/11/02 11:31:04;;;;;;;0.10;0.10;;;20.20;49.60;;;;;;5072469;28;20054;-46
2021/11/02 11:33:33;;;;;;;0.00;0.00;;;20.20;49.00;;;;;;5080389;28;20028;-46
2021/11/02 11:36:04;;;;;;;0.52;0.00;;;20.20;48.70;;;;;;5075094;28;20056;-46
2021/11/02 11:38:37;;;;;;;0.40;0.10;;;20.20;48.40;;;;;;5081553;28;20389;-46
2021/11/02 11:41:05;;;;;;;0.10;0.00;;;20.30;48.30;;;;;;5081668;28;20056;-46
2021/11/02 11:43:33;;;;;;;0.45;0.25;;;20.30;48.70;;;;;;5075266;28;20868;-46
2021/11/02 11:46:03;;;;;;;0.10;0.00;;;20.30;48.50;;;;;;5074791;28;20105;-46
2021/11/02 11:48:30;;;;;;;0.05;0.05;;;20.40;48.40;;;;;;5076705;28;20109;-46
2021/11/02 11:51:00;;;;;;;1.05;0.00;;;20.30;48.20;;;;;;5079703;28;20684;-46
2021/11/02 11:53:30;;;;;;;0.52;0.00;;;20.30;48.20;;;;;;5082174;28;20144;-46
2021/11/02 11:56:06;;;;;;;1.33;0.00;;;20.40;48.50;;;;;;5083197;28;20122;-46
2021/11/02 11:58:33;;;;;;;;;;;20.40;48.50;;;;;;5074494;28;20695;-46
2021/11/02 12:01:10;;;;;;;0.17;0.00;;;20.40;48.60;;;;;;5077253;28;19924;-46
2021/11/02 12:03:52;;;;;;;0.30;0.28;;;20.50;48.20;;;;;;5075339;28;20132;-46
2021/11/02 12:06:22;;;;;;;1.30;0.00;;;20.50;48.00;;;;;;5065422;28;20028;-46
2021/11/02 12:08:59;;;;;;;1.10;0.17;;;20.50;47.90;;;;;;5075682;28;20041;-46
2021/11/02 12:11:29;;;;;;;0.00;0.00;;;20.50;48.10;;;;;;5081704;28;20040;-46
2021/11/02 12:14:06;;;;;;;0.00;0.00;;;20.50;48.10;;;;;;5082171;28;20131;-46
2021/11/02 12:16:37;;;;;;;0.08;0.08;;;20.50;48.10;;;;;;5076289;28;20055;-46
2021/11/02 12:19:09;;;;;;;0.00;0.00;;;20.60;48.80;;;;;;5074766;28;20052;-46
2021/11/02 12:21:38;;;;;;;0.10;0.10;;;20.70;48.20;;;;;;5075366;28;20037;-46
2021/11/02 12:24:09;;;;;;;0.52;0.00;;;20.70;48.00;;;;;;5080452;28;20036;-46
2021/11/02 12:26:47;;;;;;;0.00;0.00;;;20.80;48.00;;;;;;5071862;28;20033;-46
2021/11/02 12:29:25;;;;;;;1.13;0.00;;;20.90;47.80;;;;;;5077495;28;20043;-46
2021/11/02 12:31:58;;;;;;;1.65;0.10;;;20.90;47.70;;;;;;5078659;28;20040;-46
2021/11/02 12:34:27;;;;;;;0.00;0.00;;;21.00;47.60;;;;;;5077564;28;20044;-46
2021/11/02 12:36:56;;;;;;;0.00;0.00;;;21.00;47.40;;;;;;5077820;28;20134;-46
2021/11/02 12:39:28;;;;;;;0.68;0.00;;;21.10;47.30;;;;;;5076009;28;20606;-46
2021/11/02 12:41:58;;;;;;;0.03;0.00;;;21.20;47.20;;;;;;5075961;28;20038;-46
2021/11/02 12:44:28;;;;;;;0.32;0.10;;;21.20;47.10;;;;;;5080570;28;20044;-46
2021/11/02 12:46:57;;;;;;;3.47;0.00;;;21.30;47.10;;;;;;5077045;28;20049;-46
2021/11/02 12:49:38;;;;;;;0.30;0.00;;;21.30;47.00;;;;;;5074757;28;20101;-46
2021/11/02 12:52:08;;;;;;;0.00;0.00;;;21.40;46.80;;;;;;5075591;28;20098;-46
2021/11/02 12:54:38;;;;;;;1.45;0.10;;;21.40;46.70;;;;;;5074915;28;20028;-46
2021/11/02 12:57:10;;;;;;;0.52;0.00;;;21.40;46.60;;;;;;5073962;28;20040;-46
2021/11/02 12:59:46;;;;;;;0.38;0.05;;;21.50;46.50;;;;;;5072928;28;20065;-46
2021/11/02 13:02:19;;;;;;;0.10;0.10;;;21.50;46.40;;;;;;5079150;28;20507;-46
2021/11/02 13:04:49;;;;;;;0.00;0.00;;;21.60;46.40;;;;;;5076832;28;20047;-46
2021/11/02 13:07:17;;;;;;;1.40;0.00;;;21.60;46.30;;;;;;5078558;28;20032;-46
2021/11/02 13:09:49;;;;;;;1.17;0.50;;;21.60;46.10;;;;;;5075946;28;20467;-46
2021/11/02 13:12:18;;;;;;;1.55;0.05;;;21.60;46.00;;;;;;5080442;28;20036;-46
2021/11/02 13:14:47;;;;;;;3.70;0.10;;;21.70;46.00;;;;;;5076980;28;20521;-46
2021/11/02 13:17:19;;;;;;;0.10;0.00;;;21.70;45.90;;;;;;5082666;28;20046;-46
2021/11/02 13:19:50;;;;;;;0.63;0.32;;;21.70;45.80;;;;;;5078959;28;20044;-46
2021/11/02 13:22:19;;;;;;;0.13;0.10;;;21.70;45.70;;;;;;5070549;28;20091;-46
2021/11/02 13:25:06;;;;;;;5.28;0.03;;;21.70;45.70;;;;;;5075597;28;20040;-46
2021/11/02 13:27:37;;;;;;;3.90;0.15;;;21.80;45.60;;;;;;5073222;28;20037;-46
2021/11/02 13:30:33;;;;;;;3.28;0.10;;;21.80;45.60;;;;;;5081579;28;20040;-46
2021/11/02 13:33:13;;;;;;;1.30;0.52;;;21.80;45.50;;;;;;5070011;28;20420;-46
2021/11/02 13:35:48;;;;;;;1.85;0.10;;;21.80;45.50;;;;;;5078389;28;20041;-47
2021/11/02 13:38:32;;;;;;;0.25;0.10;;;21.80;45.40;;;;;;5080364;28;20040;-46
2021/11/02 13:41:06;;;;;;;1.45;0.00;;;21.80;45.40;;;;;;5078088;28;20059;-46
2021/11/02 13:43:35;;;;;;;3.30;0.10;;;21.90;45.30;;;;;;5064929;28;20083;-46
2021/11/02 13:46:03;;;;;;;0.25;0.10;;;21.90;45.30;;;;;;5072386;28;20036;-47
2021/11/02 13:48:32;;;;;;;0.40;0.08;;;21.90;44.60;;;;;;5076620;28;20040;-46
2021/11/02 13:51:00;;;;;;;1.25;0.10;;;21.90;43.80;;;;;;5069720;28;20526;-47
2021/11/02 13:53:32;;;;;;;2.17;0.10;;;21.80;43.40;;;;;;5078682;28;20048;-46
2021/11/02 13:56:02;;;;;;;0.28;0.10;;;21.80;43.20;;;;;;5080379;28;20048;-46
2021/11/02 13:58:29;;;;;;;0.35;0.10;;;21.80;43.20;;;;;;5080420;28;20040;-46
2021/11/02 14:00:56;;;;;;;3.30;0.00;;;21.80;44.20;;;;;;5078489;28;20131;-46
2021/11/02 14:03:28;;;;;;;2.72;0.50;;;21.80;43.80;;;;;;5079540;28;20420;-46
2021/11/02 14:05:57;;;;;;;0.15;0.00;;;21.70;43.40;;;;;;5080037;28;20033;-46
2021/11/02 14:08:25;;;;;;;0.55;0.10;;;21.70;43.40;;;;;;5084961;28;20036;-46
2021/11/02 14:10:53;;;;;;;1.48;0.10;;;21.70;43.50;;;;;;5082742;28;20618;-46
2021/11/02 14:13:39;;;;;;;1.48;0.10;;;21.70;43.70;;;;;;5077771;28;20703;-47
2021/11/02 14:16:06;;;;;;;;;;;21.60;43.60;;;;;;5077849;28;20432;-46
2021/11/02 14:18:35;;;;;;;1.65;0.10;;;21.50;44.00;;;;;;5078149;28;20362;-46
2021/11/02 14:21:02;;;;;;;0.90;0.63;;;21.50;44.30;;;;;;5082272;28;20051;-46
2021/11/02 14:23:39;;;;;;;1.25;0.00;;;21.50;44.40;;;;;;5084633;28;20036;-46
2021/11/02 14:26:22;;;;;;;0.57;0.10;;;21.50;44.10;;;;;;5087695;28;20040;-46
2021/11/02 14:28:53;;;;;;;1.08;0.68;;;21.50;44.10;;;;;;5079681;28;20447;-47
2021/11/02 14:31:48;;;;;;;0.95;0.05;;;21.50;44.80;;;;;;5079956;28;20044;-46
2021/11/02 14:34:54;;;;;;;0.93;0.00;;;21.60;45.00;;;;;;5077045;28;20051;-46
2021/11/02 14:37:23;;;;;;;0.20;0.10;;;21.70;45.10;;;;;;5055383;28;20044;-46
2021/11/02 14:39:56;;;;;;;3.20;0.00;;;21.70;45.20;;;;;;5077568;28;20052;-46
2021/11/02 14:42:46;;;;;;;0.90;0.00;;;21.80;45.10;;;;;;5078586;28;20089;-46
2021/11/02 14:45:15;;;;;;;1.65;0.05;;;21.80;43.70;;;;;;5073047;28;20043;-46
2021/11/02 14:47:43;;;;;;;0.20;0.05;;;21.80;43.40;;;;;;5071039;28;20122;-46
2021/11/02 14:50:37;;;;;;;2.38;0.10;;;21.80;43.20;;;;;;5082016;28;20040;-46
2021/11/02 14:53:19;;;;;;;0.20;0.20;;;21.80;42.80;;;;;;5012726;28;20054;-47
2021/11/02 14:56:05;;;;;;;0.52;0.00;;;21.80;42.70;;;;;;5011352;28;20206;-46
2021/11/02 14:58:53;;;;;;;0.73;0.00;;;21.70;42.80;;;;;;5002661;28;20046;-46
2021/11/02 15:01:26;;;;;;;1.65;0.10;;;21.70;43.00;;;;;;5006123;28;20046;-46
2021/11/02 15:03:58;;;;;;;0.85;0.10;;;21.60;43.20;;;;;;5006210;28;20054;-46
2021/11/02 15:06:31;;;;;;;0.10;0.00;;;21.60;43.40;;;;;;5006303;28;20525;-46
2021/11/02 15:08:59;;;;;;;0.52;0.00;;;21.50;43.50;;;;;;5007098;28;20053;-46
2021/11/02 15:11:26;;;;;;;0.20;0.10;;;21.50;43.80;;;;;;5005909;28;20173;-46
2021/11/02 15:13:55;;;;;;;0.60;0.20;;;21.40;43.80;;;;;;5020106;28;20046;-46
2021/11/02 15:16:25;;;;;;;0.00;0.00;;;21.40;44.00;;;;;;5007913;28;20057;-46
2021/11/02 15:18:54;;;;;;;5.40;0.10;;;21.40;44.10;;;;;;5009798;28;20037;-46
2021/11/02 15:21:30;;;;;;;0.73;0.10;;;21.30;44.30;;;;;;5005156;28;20053;-46
2021/11/02 15:24:04;;;;;;;0.55;0.20;;;21.30;44.50;;;;;;5016536;28;20055;-46
2021/11/02 15:26:42;;;;;;;0.28;0.00;;;21.20;44.60;;;;;;4972859;28;20415;-46
2021/11/02 15:29:10;;;;;;;0.30;0.00;;;21.10;44.70;;;;;;5051028;28;20715;-46
2021/11/02 15:31:39;;;;;;;1.45;0.10;;;21.10;45.40;;;;;;5076564;28;20052;-46
2021/11/02 15:34:14;;;;;;;0.10;0.00;;;21.10;45.00;;;;;;5074983;28;20059;-46
2021/11/02 15:36:42;;;;;;;0.70;0.10;;;21.00;45.10;;;;;;5078950;28;20037;-46
2021/11/02 15:39:10;;;;;;;0.30;0.03;;;21.00;45.20;;;;;;5073590;28;20523;-46
2021/11/02 15:41:38;;;;;;;0.20;0.20;;;20.90;45.30;;;;;;5080184;28;20052;-46
2021/11/02 15:44:07;;;;;;;0.93;0.15;;;20.90;45.40;;;;;;5083132;28;20036;-46
2021/11/02 15:46:41;;;;;;;0.63;0.35;;;20.80;45.50;;;;;;5079704;28;20064;-46
2021/11/02 15:49:10;;;;;;;0.90;0.00;;;20.80;45.60;;;;;;5079170;28;20063;-46
2021/11/02 15:51:39;;;;;;;0.90;0.13;;;20.80;45.70;;;;;;5081240;28;20068;-46
2021/11/02 15:54:11;;;;;;;0.20;0.10;;;20.70;45.90;;;;;;5078614;28;20072;-46
2021/11/02 15:56:39;;;;;;;0.47;0.10;;;20.70;45.90;;;;;;5074888;28;20061;-46
2021/11/02 15:59:08;;;;;;;1.42;0.00;;;20.70;46.10;;;;;;5085138;28;20078;-46
2021/11/02 16:01:43;;;;;;;0.60;0.10;;;20.60;46.10;;;;;;5071815;28;20509;-47
2021/11/02 16:04:19;;;;;;;1.38;0.10;;;20.60;46.30;;;;;;5076624;28;20418;-46
2021/11/02 16:07:01;;;;;;;0.73;0.10;;;20.60;46.40;;;;;;5062729;28;20135;-46
2021/11/02 16:09:49;;;;;;;0.43;0.10;;;20.50;46.40;;;;;;5080951;28;20036;-46
2021/11/02 16:12:18;;;;;;;1.55;0.00;;;20.50;46.50;;;;;;5075243;28;20052;-46
2021/11/02 16:14:51;;;;;;;0.98;0.82;;;20.40;46.60;;;;;;5070896;28;20086;-46
2021/11/02 16:17:20;;;;;;;1.35;0.10;;;20.40;46.70;;;;;;5082124;28;20532;-46
2021/11/02 16:19:49;;;;;;;2.38;0.73;;;20.40;46.80;;;;;;5078358;28;20040;-46
2021/11/02 16:22:16;;;;;;;2.65;0.65;;;20.30;46.80;;;;;;5074454;28;20043;-47
2021/11/02 16:24:44;;;;;;;0.90;0.10;;;20.30;46.80;;;;;;5073126;28;20501;-46
2021/11/02 16:27:21;;;;;;;1.40;0.50;;;20.30;46.90;;;;;;5079010;28;20120;-46
2021/11/02 16:29:50;;;;;;;0.52;0.30;;;20.30;47.00;;;;;;5066707;28;20052;-46
2021/11/02 16:32:24;;;;;;;2.58;0.00;;;20.20;47.10;;;;;;5085443;28;20653;-46
2021/11/02 16:34:52;;;;;;;2.97;0.20;;;20.20;47.10;;;;;;5078601;28;20044;-46
2021/11/02 16:37:35;;;;;;;1.27;0.10;;;20.20;47.20;;;;;;5077307;28;20048;-46
2021/11/02 16:40:23;;;;;;;0.65;0.10;;;20.20;47.30;;;;;;5074379;28;20449;-46
2021/11/02 16:43:08;;;;;;;0.30;0.10;;;20.20;47.40;;;;;;5066527;28;20047;-46
2021/11/02 16:45:36;;;;;;;0.28;0.10;;;20.20;47.50;;;;;;5066316;28;20132;-46
2021/11/02 16:48:07;;;;;;;0.30;0.00;;;20.10;47.50;;;;;;5078042;28;20044;-46
2021/11/02 16:50:36;;;;;;;0.40;0.10;;;20.10;47.60;;;;;;5080056;28;20134;-46
2021/11/02 16:53:24;;;;;;;1.17;0.10;;;20.00;47.60;;;;;;5080740;28;20040;-46
2021/11/02 16:55:51;;;;;;;0.65;0.20;;;20.10;47.60;;;;;;5077537;28;20054;-46
2021/11/02 16:58:31;;;;;;;1.42;0.10;;;20.00;47.70;;;;;;5071594;28;20083;-46
2021/11/02 17:01:22;;;;;;;0.43;0.00;;;20.00;47.80;;;;;;5075230;28;20048;-46
2021/11/02 17:03:52;;;;;;;3.25;0.00;;;20.00;47.80;;;;;;5066071;28;20028;-46
2021/11/02 17:06:21;;;;;;;0.10;0.10;;;20.00;47.90;;;;;;5076817;28;20047;-46
2021/11/02 17:09:10;;;;;;;2.22;0.10;;;19.90;47.90;;;;;;5074143;28;20088;-46
2021/11/02 17:11:50;;;;;;;0.63;0.45;;;20.00;48.60;;;;;;5079068;28;20083;-46
2021/11/02 17:14:17;;;;;;;0.68;0.10;;;19.90;48.10;;;;;;5068409;28;20052;-46
2021/11/02 17:16:50;;;;;;;0.45;0.10;;;19.90;48.10;;;;;;5077539;28;20050;-46
2021/11/02 17:19:20;;;;;;;0.55;0.10;;;19.90;48.20;;;;;;5070178;28;20060;-46
2021/11/02 17:21:51;;;;;;;1.65;0.00;;;19.80;48.20;;;;;;5067481;28;20524;-46
2021/11/02 17:24:19;;;;;;;0.98;0.10;;;19.80;48.20;;;;;;5075839;28;20064;-46
2021/11/02 17:26:47;;;;;;;0.10;0.10;;;19.80;48.20;;;;;;5074178;28;20084;-46
2021/11/02 17:29:14;;;;;;;0.45;0.08;;;19.80;48.30;;;;;;5076080;28;20051;-46
2021/11/02 17:31:44;;;;;;;0.38;0.10;;;19.80;48.30;;;;;;5074132;28;20048;-46
2021/11/02 17:34:13;;;;;;;1.00;0.10;;;19.80;48.40;;;;;;5074901;28;20054;-46
2021/11/02 17:36:42;;;;;;;1.27;0.10;;;19.80;48.40;;;;;;5073897;28;20028;-46
2021/11/02 17:39:09;;;;;;;0.45;0.17;;;19.80;48.40;;;;;;5077142;28;20046;-46
2021/11/02 17:41:38;;;;;;;2.83;0.10;;;19.80;48.50;;;;;;5077539;28;20065;-46
2021/11/02 17:44:06;;;;;;;1.58;0.10;;;19.80;48.50;;;;;;5079941;28;20682;-46
2021/11/02 17:46:33;;;;;;;0.63;0.10;;;19.80;48.50;;;;;;5073321;28;20063;-55
2021/11/02 17:49:00;;;;;;;0.20;0.10;;;19.80;48.60;;;;;;5072629;28;20048;-46
2021/11/02 17:51:28;;;;;;;0.10;0.00;;;19.80;48.60;;;;;;5076603;28;20041;-47
2021/11/02 17:53:57;;;;;;;0.43;0.10;;;19.70;48.60;;;;;;5077084;28;20124;-46